createdAt,value
2023-05-03T00:00:08.814Z,101049.72
2023-05-03T00:02:57.662Z,101051.31
2023-05-03T00:05:26.840Z,101055.34
2023-05-03T00:07:54.847Z,101056.44
2023-05-03T00:10:23.270Z,101057.03
2023-05-03T00:12:51.288Z,101057.13
2023-05-03T00:15:19.509Z,101051.16
2023-05-03T00:17:47.528Z,101053.03
2023-05-03T00:20:15.790Z,101050.59
2023-05-03T00:22:43.919Z,101048.69
2023-05-03T00:25:12.169Z,101045.44
2023-05-03T00:27:40.020Z,101043.44
2023-05-03T00:30:09.820Z,101044.28
2023-05-03T00:32:37.754Z,101043.53
2023-05-03T00:35:06.889Z,101041.78
2023-05-03T00:37:34.889Z,101051.63
2023-05-03T00:40:04.870Z,101045.06
2023-05-03T00:42:36.954Z,101048.69
2023-05-03T00:45:06.429Z,101048.16
2023-05-03T00:47:35.016Z,101048.38
2023-05-03T00:50:05.815Z,101048.06
2023-05-03T00:52:34.945Z,101049.84
2023-05-03T00:55:03.929Z,101051.44
2023-05-03T00:57:31.890Z,101047.81
2023-05-03T01:00:01.012Z,101047.28
2023-05-03T01:02:29.451Z,101050.47
2023-05-03T01:04:57.910Z,101043.78
2023-05-03T01:07:48.571Z,101046.91
2023-05-03T01:10:22.113Z,101041.44
2023-05-03T01:13:00.138Z,101041.69
2023-05-03T01:16:04.046Z,101041.38
2023-05-03T01:18:49.222Z,101043.25
2023-05-03T01:21:18.989Z,101039.09
2023-05-03T01:24:04.460Z,101048.06
2023-05-03T01:26:33.739Z,101045.81
2023-05-03T01:29:01.987Z,101044.00
2023-05-03T01:31:37.550Z,101037.84
2023-05-03T01:34:18.846Z,101042.59
2023-05-03T01:36:49.563Z,101047.13
2023-05-03T01:39:24.750Z,101046.34
2023-05-03T01:41:53.772Z,101049.38
2023-05-03T01:44:24.645Z,101036.84
2023-05-03T01:46:53.010Z,101036.16
2023-05-03T01:49:21.035Z,101042.22
2023-05-03T01:51:49.998Z,101039.75
2023-05-03T01:54:18.850Z,101040.91
2023-05-03T01:56:47.199Z,101054.34
2023-05-03T01:59:16.422Z,101045.97
2023-05-03T02:01:46.185Z,101038.28
2023-05-03T02:04:14.190Z,101050.19
2023-05-03T02:06:42.592Z,101053.34
2023-05-03T02:09:10.801Z,101062.34
2023-05-03T02:11:39.074Z,101058.97
2023-05-03T02:14:08.452Z,101060.66
2023-05-03T02:16:37.149Z,101053.91
2023-05-03T02:19:05.936Z,101058.41
2023-05-03T02:21:36.642Z,101054.13
2023-05-03T02:24:04.880Z,101062.16
2023-05-03T02:26:33.300Z,101058.28
2023-05-03T02:29:01.784Z,101060.19
2023-05-03T02:31:32.777Z,101057.72
2023-05-03T02:34:01.124Z,101060.53
2023-05-03T02:36:29.763Z,101062.22
2023-05-03T02:38:58.518Z,101055.06
2023-05-03T02:41:27.395Z,101054.69
2023-05-03T02:43:55.494Z,101059.97
2023-05-03T02:46:26.928Z,101059.53
2023-05-03T02:48:55.141Z,101052.47
2023-05-03T02:51:24.199Z,101055.00
2023-05-03T02:53:52.140Z,101062.34
2023-05-03T02:56:21.060Z,101060.28
2023-05-03T02:58:48.986Z,101068.13
2023-05-03T03:01:17.639Z,101058.69
2023-05-03T03:03:45.895Z,101062.47
2023-05-03T03:06:14.757Z,101060.22
2023-05-03T03:08:44.569Z,101067.47
2023-05-03T03:11:13.349Z,101068.03
2023-05-03T03:13:41.557Z,101074.66
2023-05-03T03:16:10.561Z,101072.97
2023-05-03T03:18:38.540Z,101083.41
2023-05-03T03:21:07.132Z,101076.81
2023-05-03T03:23:37.212Z,101076.03
2023-05-03T03:26:05.588Z,101074.91
2023-05-03T03:28:33.690Z,101074.91
2023-05-03T03:31:06.932Z,101085.03
2023-05-03T03:33:35.039Z,101079.72
2023-05-03T03:36:10.678Z,101085.00
2023-05-03T03:38:42.201Z,101083.78
2023-05-03T03:41:12.373Z,101087.63
2023-05-03T03:43:40.363Z,101096.00
2023-05-03T03:46:13.710Z,101088.50
2023-05-03T03:48:43.101Z,101089.94
2023-05-03T03:51:11.728Z,101084.78
2023-05-03T03:53:45.766Z,101085.00
2023-05-03T03:56:15.110Z,101089.75
2023-05-03T03:58:43.808Z,101095.03
2023-05-03T04:01:13.991Z,101095.25
2023-05-03T04:03:41.934Z,101099.38
2023-05-03T04:06:11.060Z,101097.13
2023-05-03T04:08:39.028Z,101102.84
2023-05-03T04:11:12.690Z,101104.22
2023-05-03T04:13:46.603Z,101104.31
2023-05-03T04:16:15.574Z,101109.50
2023-05-03T04:18:43.971Z,101106.34
2023-05-03T04:21:12.556Z,101107.59
2023-05-03T04:23:40.903Z,101108.50
2023-05-03T04:26:20.195Z,101108.50
2023-05-03T04:28:56.982Z,101107.34
2023-05-03T04:31:25.669Z,101110.16
2023-05-03T04:33:55.690Z,101117.00
2023-05-03T04:36:26.081Z,101122.91
2023-05-03T04:38:56.479Z,101121.28
2023-05-03T04:41:25.867Z,101131.03
2023-05-03T04:43:55.615Z,101124.28
2023-05-03T04:46:24.443Z,101126.56
2023-05-03T04:48:52.729Z,101133.97
2023-05-03T04:51:21.232Z,101137.78
2023-05-03T04:53:51.139Z,101137.13
2023-05-03T04:56:26.527Z,101139.91
2023-05-03T04:59:02.050Z,101143.63
2023-05-03T05:01:30.306Z,101142.72
2023-05-03T05:04:02.357Z,101140.72
2023-05-03T05:06:37.489Z,101139.13
2023-05-03T05:09:22.191Z,101146.00
2023-05-03T05:11:53.553Z,101147.66
2023-05-03T05:14:23.552Z,101146.53
2023-05-03T05:16:51.995Z,101153.28
2023-05-03T05:19:20.056Z,101149.91
2023-05-03T05:21:48.479Z,101152.41
2023-05-03T05:24:17.427Z,101149.00
2023-05-03T05:26:47.290Z,101143.97
2023-05-03T05:29:16.722Z,101151.44
2023-05-03T05:31:45.364Z,101152.34
2023-05-03T05:34:13.735Z,101152.47
2023-05-03T05:36:42.686Z,101144.16
2023-05-03T05:39:10.716Z,101158.88
2023-05-03T05:41:39.672Z,101154.50
2023-05-03T05:44:08.156Z,101153.94
2023-05-03T05:46:36.402Z,101157.50
2023-05-03T05:49:05.156Z,101163.44
2023-05-03T05:51:33.326Z,101156.03
2023-05-03T05:54:01.237Z,101157.94
2023-05-03T05:56:29.735Z,101162.91
2023-05-03T05:58:57.847Z,101166.03
2023-05-03T06:01:27.460Z,101171.31
2023-05-03T06:03:56.732Z,101164.09
2023-05-03T06:06:26.427Z,101162.56
2023-05-03T06:08:55.454Z,101178.53
2023-05-03T06:11:23.743Z,101177.22
2023-05-03T06:13:51.961Z,101173.88
2023-05-03T06:16:22.300Z,101172.69
2023-05-03T06:18:51.307Z,101174.53
2023-05-03T06:21:19.539Z,101177.72
2023-05-03T06:23:47.462Z,101174.13
2023-05-03T06:26:17.724Z,101173.97
2023-05-03T06:28:47.471Z,101173.06
2023-05-03T06:31:16.838Z,101176.69
2023-05-03T06:33:46.270Z,101178.34
2023-05-03T06:36:14.785Z,101182.72
2023-05-03T06:38:44.199Z,101177.78
2023-05-03T06:41:12.437Z,101177.84
2023-05-03T06:43:40.384Z,101183.59
2023-05-03T06:46:09.016Z,101194.09
2023-05-03T06:48:36.961Z,101194.06
2023-05-03T06:51:06.205Z,101188.25
2023-05-03T06:53:34.178Z,101192.03
2023-05-03T06:56:03.881Z,101192.16
2023-05-03T06:58:32.032Z,101188.59
2023-05-03T07:01:00.240Z,101184.16
2023-05-03T07:03:28.248Z,101183.16
2023-05-03T07:05:56.659Z,101184.19
2023-05-03T07:08:24.628Z,101186.97
2023-05-03T07:10:52.851Z,101189.34
2023-05-03T07:13:20.828Z,101192.66
2023-05-03T07:15:49.328Z,101193.28
2023-05-03T07:18:17.506Z,101196.28
2023-05-03T07:20:46.839Z,101188.72
2023-05-03T07:23:15.861Z,101192.38
2023-05-03T07:25:46.055Z,101190.72
2023-05-03T07:28:14.110Z,101184.09
2023-05-03T07:30:42.352Z,101186.13
2023-05-03T07:33:10.272Z,101184.38
2023-05-03T07:35:38.656Z,101180.56
2023-05-03T07:38:06.546Z,101183.09
2023-05-03T07:40:34.816Z,101184.28
2023-05-03T07:43:03.316Z,101177.31
2023-05-03T07:45:31.735Z,101179.66
2023-05-03T07:47:59.617Z,101173.94
2023-05-03T07:50:27.978Z,101171.88
2023-05-03T07:52:56.712Z,101181.28
2023-05-03T07:55:28.541Z,101177.16
2023-05-03T07:57:59.606Z,101178.78
2023-05-03T08:00:28.414Z,101183.06
2023-05-03T08:02:56.686Z,101178.75
2023-05-03T08:05:26.256Z,101182.53
2023-05-03T08:07:54.396Z,101182.78
2023-05-03T08:10:22.805Z,101183.78
2023-05-03T08:12:50.998Z,101178.13
2023-05-03T08:15:19.497Z,101185.88
2023-05-03T08:17:47.366Z,101183.50
2023-05-03T08:20:17.116Z,101185.44
2023-05-03T08:22:46.635Z,101190.53
2023-05-03T08:25:17.871Z,101186.13
2023-05-03T08:27:45.919Z,101187.56
2023-05-03T08:30:14.378Z,101190.06
2023-05-03T08:32:42.321Z,101200.25
2023-05-03T08:35:11.143Z,101192.16
2023-05-03T08:37:42.909Z,101192.06
2023-05-03T08:40:15.800Z,101202.00
2023-05-03T08:42:46.262Z,101199.09
2023-05-03T08:45:16.553Z,101197.97
2023-05-03T08:47:45.571Z,101197.63
2023-05-03T08:50:16.120Z,101203.69
2023-05-03T08:52:44.482Z,101198.81
2023-05-03T08:55:13.140Z,101204.28
2023-05-03T08:57:41.496Z,101189.72
2023-05-03T09:00:13.440Z,101197.38
2023-05-03T09:02:41.677Z,101197.22
2023-05-03T09:05:15.998Z,101202.50
2023-05-03T09:08:05.262Z,101208.28
2023-05-03T09:10:38.754Z,101203.53
2023-05-03T09:13:08.044Z,101198.22
2023-05-03T09:15:36.424Z,101194.50
2023-05-03T09:18:13.967Z,101190.44
2023-05-03T09:20:43.104Z,101194.88
2023-05-03T09:23:11.044Z,101206.19
2023-05-03T09:25:46.288Z,101197.06
2023-05-03T09:28:15.792Z,101197.50
2023-05-03T09:30:45.253Z,101195.75
2023-05-03T09:33:23.835Z,101194.88
2023-05-03T09:36:01.250Z,101184.63
2023-05-03T09:38:35.018Z,101206.34
2023-05-03T09:41:06.451Z,101201.69
2023-05-03T09:43:36.226Z,101187.44
2023-05-03T09:46:13.053Z,101189.16
2023-05-03T09:48:41.424Z,101193.41
2023-05-03T09:51:11.626Z,101185.63
2023-05-03T09:53:40.668Z,101189.50
2023-05-03T09:56:14.180Z,101187.97
2023-05-03T09:58:44.020Z,101184.34
2023-05-03T10:01:15.123Z,101178.25
2023-05-03T10:03:52.124Z,101186.78
2023-05-03T10:06:32.052Z,101181.22
2023-05-03T10:09:14.736Z,101186.03
2023-05-03T10:11:52.123Z,101167.31
2023-05-03T10:14:21.812Z,101173.09
2023-05-03T10:16:53.951Z,101166.13
2023-05-03T10:19:28.807Z,101179.75
2023-05-03T10:22:09.166Z,101175.53
2023-05-03T10:24:38.877Z,101184.00
2023-05-03T10:27:08.806Z,101181.84
2023-05-03T10:29:46.594Z,101165.34
2023-05-03T10:32:33.838Z,101180.47
2023-05-03T10:35:13.296Z,101164.94
2023-05-03T10:37:43.256Z,101167.59
2023-05-03T10:40:16.031Z,101163.25
2023-05-03T10:42:56.632Z,101163.41
2023-05-03T10:45:29.171Z,101156.00
2023-05-03T10:48:12.752Z,101157.06
2023-05-03T10:50:40.795Z,101155.88
2023-05-03T10:53:29.545Z,101149.84
2023-05-03T10:56:06.825Z,101154.59
2023-05-03T10:58:44.047Z,101155.16
2023-05-03T11:01:14.473Z,101149.00
2023-05-03T11:04:13.825Z,101153.56
2023-05-03T11:06:42.070Z,101148.50
2023-05-03T11:09:12.671Z,101152.13
2023-05-03T11:11:42.217Z,101147.34
2023-05-03T11:14:14.040Z,101141.72
2023-05-03T11:16:48.295Z,101140.94
2023-05-03T11:19:17.252Z,101129.50
2023-05-03T11:21:46.392Z,101141.41
2023-05-03T11:24:15.747Z,101140.41
2023-05-03T11:26:43.629Z,101141.19
2023-05-03T11:29:13.290Z,101139.59
2023-05-03T11:31:43.452Z,101144.56
2023-05-03T11:34:13.443Z,101137.59
2023-05-03T11:36:42.516Z,101126.31
2023-05-03T11:39:14.686Z,101129.44
2023-05-03T11:41:42.695Z,101127.09
2023-05-03T11:44:16.861Z,101125.22
2023-05-03T11:46:49.580Z,101132.66
2023-05-03T11:49:19.635Z,101136.47
2023-05-03T11:51:51.606Z,101127.97
2023-05-03T11:54:26.001Z,101134.16
2023-05-03T11:56:58.199Z,101130.53
2023-05-03T11:59:38.422Z,101131.19
2023-05-03T12:02:12.137Z,101128.56
2023-05-03T12:04:43.742Z,101137.25
2023-05-03T12:07:15.206Z,101131.78
2023-05-03T12:09:53.215Z,101128.22
2023-05-03T12:12:32.118Z,101117.78
2023-05-03T12:15:03.853Z,101117.41
2023-05-03T12:17:44.443Z,101122.03
2023-05-03T12:22:58.543Z,101129.88
2023-05-03T12:25:32.957Z,101129.44
2023-05-03T12:30:36.065Z,101125.78
2023-05-03T12:33:05.173Z,101116.72
2023-05-03T12:35:34.628Z,101123.97
2023-05-03T12:38:04.756Z,101123.59
2023-05-03T12:40:35.133Z,101126.59
2023-05-03T12:43:03.893Z,101118.31
2023-05-03T12:45:34.462Z,101113.03
2023-05-03T12:48:03.406Z,101117.84
2023-05-03T12:50:36.835Z,101123.94
2023-05-03T12:53:09.578Z,101122.69
2023-05-03T12:55:43.257Z,101123.38
2023-05-03T13:00:53.244Z,101115.88
2023-05-03T13:03:34.415Z,101110.38
2023-05-03T13:06:13.261Z,101124.81
2023-05-03T13:08:49.723Z,101119.31
2023-05-03T13:11:19.812Z,101113.41
2023-05-03T13:13:48.108Z,101113.16
2023-05-03T13:16:16.413Z,101107.69
2023-05-03T13:18:45.620Z,101103.75
2023-05-03T13:21:13.998Z,101110.00
2023-05-03T13:23:41.999Z,101113.72
2023-05-03T13:26:10.277Z,101105.19
2023-05-03T13:28:38.235Z,101112.38
2023-05-03T13:31:06.663Z,101101.31
2023-05-03T13:33:38.201Z,101106.50
2023-05-03T13:36:07.095Z,101108.81
2023-05-03T13:38:35.676Z,101099.88
2023-05-03T13:41:09.916Z,101105.75
2023-05-03T13:43:37.756Z,101110.38
2023-05-03T13:46:05.938Z,101099.00
2023-05-03T13:48:34.307Z,101094.81
2023-05-03T13:51:10.306Z,101094.41
2023-05-03T13:53:38.750Z,101091.22
2023-05-03T13:56:07.854Z,101088.09
2023-05-03T13:58:36.439Z,101097.09
2023-05-03T14:01:04.699Z,101090.13
2023-05-03T14:03:34.231Z,101089.97
2023-05-03T14:06:02.981Z,101089.06
2023-05-03T14:08:31.049Z,101085.13
2023-05-03T14:10:59.583Z,101084.59
2023-05-03T14:13:31.301Z,101078.13
2023-05-03T14:16:06.456Z,101083.63
2023-05-03T14:18:34.434Z,101091.78
2023-05-03T14:21:02.813Z,101086.53
2023-05-03T14:23:30.941Z,101095.44
2023-05-03T14:25:59.245Z,101088.53
2023-05-03T14:28:27.196Z,101093.78
2023-05-03T14:30:55.368Z,101098.22
2023-05-03T14:33:23.297Z,101100.91
2023-05-03T14:35:51.580Z,101112.28
2023-05-03T14:38:19.493Z,101106.00
2023-05-03T14:40:48.097Z,101106.00
2023-05-03T14:43:16.197Z,101102.16
2023-05-03T14:45:45.776Z,101096.75
2023-05-03T14:48:13.806Z,101106.09
2023-05-03T14:50:42.566Z,101107.25
2023-05-03T14:53:10.507Z,101116.25
2023-05-03T14:55:38.726Z,101109.63
2023-05-03T14:58:07.528Z,101115.88
2023-05-03T15:00:42.601Z,101115.47
2023-05-03T15:03:12.556Z,101110.00
2023-05-03T15:05:46.717Z,101111.53
2023-05-03T15:08:17.004Z,101124.03
2023-05-03T15:10:45.962Z,101123.66
2023-05-03T15:13:16.641Z,101138.84
2023-05-03T15:15:46.121Z,101138.06
2023-05-03T15:18:15.908Z,101141.13
2023-05-03T15:20:43.815Z,101148.56
2023-05-03T15:23:11.980Z,101143.88
2023-05-03T15:25:40.114Z,101136.44
2023-05-03T15:28:08.569Z,101130.66
2023-05-03T15:30:36.510Z,101131.41
2023-05-03T15:33:05.096Z,101130.75
2023-05-03T15:35:33.095Z,101124.41
2023-05-03T15:38:01.615Z,101125.09
2023-05-03T15:40:29.930Z,101126.25
2023-05-03T15:42:58.409Z,101133.38
2023-05-03T15:45:28.428Z,101128.28
2023-05-03T15:47:57.285Z,101130.63
2023-05-03T15:50:25.388Z,101138.09
2023-05-03T15:52:53.665Z,101133.34
2023-05-03T15:55:21.509Z,101136.09
2023-05-03T15:57:52.334Z,101142.97
2023-05-03T16:00:23.289Z,101138.66
2023-05-03T16:02:52.159Z,101133.97
2023-05-03T16:05:20.418Z,101129.28
2023-05-03T16:07:49.602Z,101130.88
2023-05-03T16:10:17.877Z,101134.09
2023-05-03T16:12:46.517Z,101134.91
2023-05-03T16:15:14.296Z,101132.53
2023-05-03T16:17:42.535Z,101130.97
2023-05-03T16:20:11.741Z,101128.19
2023-05-03T16:22:39.978Z,101125.47
2023-05-03T16:25:11.301Z,101120.88
2023-05-03T16:27:42.688Z,101121.97
2023-05-03T16:30:11.187Z,101120.78
2023-05-03T16:32:40.376Z,101120.28
2023-05-03T16:35:08.528Z,101116.78
2023-05-03T16:37:37.771Z,101118.41
2023-05-03T16:40:10.519Z,101121.09
2023-05-03T16:42:39.566Z,101120.31
2023-05-03T16:45:10.731Z,101118.34
2023-05-03T16:47:40.088Z,101117.19
2023-05-03T16:50:09.092Z,101115.97
2023-05-03T16:52:42.680Z,101119.13
2023-05-03T16:55:11.632Z,101111.25
2023-05-03T16:57:42.740Z,101113.22
2023-05-03T17:00:12.648Z,101119.03
2023-05-03T17:02:41.391Z,101120.69
2023-05-03T17:05:10.634Z,101125.34
2023-05-03T17:07:41.057Z,101113.25
2023-05-03T17:10:09.728Z,101120.16
2023-05-03T17:12:38.057Z,101121.69
2023-05-03T17:15:06.565Z,101126.72
2023-05-03T17:17:34.846Z,101127.03
2023-05-03T17:20:02.939Z,101124.06
2023-05-03T17:22:31.617Z,101127.47
2023-05-03T17:24:59.756Z,101117.50
2023-05-03T17:27:28.157Z,101128.81
2023-05-03T17:29:57.770Z,101132.78
2023-05-03T17:32:26.041Z,101136.22
2023-05-03T17:34:53.935Z,101130.97
2023-05-03T17:37:24.017Z,101135.97
2023-05-03T17:39:51.887Z,101139.06
2023-05-03T17:42:20.226Z,101142.16
2023-05-03T17:44:52.224Z,101140.25
2023-05-03T17:47:21.316Z,101143.72
2023-05-03T17:49:49.127Z,101140.50
2023-05-03T17:52:17.624Z,101145.72
2023-05-03T17:54:46.380Z,101141.34
2023-05-03T17:57:14.688Z,101144.81
2023-05-03T17:59:42.539Z,101155.78
2023-05-03T18:02:11.016Z,101157.97
2023-05-03T18:04:38.888Z,101160.69
2023-05-03T18:07:06.984Z,101163.06
2023-05-03T18:09:34.841Z,101164.78
2023-05-03T18:12:04.379Z,101164.97
2023-05-03T18:14:35.457Z,101165.22
2023-05-03T18:17:03.673Z,101155.50
2023-05-03T18:19:32.643Z,101168.06
2023-05-03T18:22:00.739Z,101169.66
2023-05-03T18:24:28.619Z,101170.34
2023-05-03T18:26:57.273Z,101173.06
2023-05-03T18:29:25.931Z,101168.31
2023-05-03T18:31:54.964Z,101163.72
2023-05-03T18:34:23.020Z,101172.50
2023-05-03T18:36:51.923Z,101175.25
2023-05-03T18:39:20.339Z,101170.16
2023-05-03T18:41:50.796Z,101177.44
2023-05-03T18:44:19.678Z,101182.47
2023-05-03T18:46:48.989Z,101186.09
2023-05-03T18:49:18.639Z,101189.19
2023-05-03T18:51:47.557Z,101188.41
2023-05-03T18:54:16.397Z,101192.06
2023-05-03T18:56:45.918Z,101197.84
2023-05-03T18:59:14.678Z,101193.97
2023-05-03T19:01:43.657Z,101198.50
2023-05-03T19:04:14.683Z,101203.97
2023-05-03T19:06:44.382Z,101213.66
2023-05-03T19:09:13.734Z,101211.31
2023-05-03T19:11:44.916Z,101217.00
2023-05-03T19:14:13.394Z,101224.56
2023-05-03T19:16:43.241Z,101222.56
2023-05-03T19:19:12.955Z,101230.94
2023-05-03T19:21:43.784Z,101226.81
2023-05-03T19:24:14.980Z,101227.00
2023-05-03T19:26:44.351Z,101220.72
2023-05-03T19:29:13.672Z,101231.34
2023-05-03T19:31:43.088Z,101231.47
2023-05-03T19:34:12.645Z,101233.00
2023-05-03T19:36:42.901Z,101239.59
2023-05-03T19:39:12.606Z,101240.03
2023-05-03T19:41:42.417Z,101239.13
2023-05-03T19:44:12.676Z,101239.41
2023-05-03T19:46:42.155Z,101248.38
2023-05-03T19:49:11.398Z,101244.16
2023-05-03T19:51:40.106Z,101257.03
2023-05-03T19:54:08.138Z,101265.19
2023-05-03T19:56:36.466Z,101254.59
2023-05-03T19:59:04.352Z,101259.34
2023-05-03T20:01:32.862Z,101267.91
2023-05-03T20:04:01.112Z,101264.31
2023-05-03T20:06:29.567Z,101276.53
2023-05-03T20:08:57.896Z,101276.84
2023-05-03T20:11:26.278Z,101280.69
2023-05-03T20:13:54.111Z,101273.81
2023-05-03T20:16:22.339Z,101280.22
2023-05-03T20:18:50.256Z,101274.16
2023-05-03T20:21:18.459Z,101280.47
2023-05-03T20:23:48.957Z,101280.59
2023-05-03T20:26:19.328Z,101275.50
2023-05-03T20:28:47.544Z,101278.53
2023-05-03T20:31:16.292Z,101275.81
2023-05-03T20:33:44.377Z,101278.47
2023-05-03T20:36:14.596Z,101284.28
2023-05-03T20:38:42.862Z,101278.91
2023-05-03T20:41:11.068Z,101278.19
2023-05-03T20:43:39.151Z,101283.88
2023-05-03T20:46:07.618Z,101282.72
2023-05-03T20:48:36.225Z,101288.53
2023-05-03T20:51:08.536Z,101282.53
2023-05-03T20:53:37.561Z,101282.34
2023-05-03T20:56:08.213Z,101283.38
2023-05-03T20:58:36.064Z,101285.00
2023-05-03T21:01:05.539Z,101281.38
2023-05-03T21:03:33.798Z,101286.31
2023-05-03T21:06:02.493Z,101284.41
2023-05-03T21:08:30.507Z,101290.78
2023-05-03T21:10:58.777Z,101292.16
2023-05-03T21:13:26.660Z,101291.03
2023-05-03T21:15:55.447Z,101290.09
2023-05-03T21:18:24.982Z,101283.94
2023-05-03T21:20:54.438Z,101289.13
2023-05-03T21:23:22.475Z,101287.81
2023-05-03T21:25:52.027Z,101288.25
2023-05-03T21:28:21.014Z,101293.88
2023-05-03T21:30:49.245Z,101289.84
2023-05-03T21:33:17.126Z,101289.72
2023-05-03T21:35:45.490Z,101287.09
2023-05-03T21:38:13.412Z,101280.19
2023-05-03T21:40:41.747Z,101282.59
2023-05-03T21:43:10.095Z,101275.34
2023-05-03T21:45:42.987Z,101283.06
2023-05-03T21:48:10.944Z,101280.72
2023-05-03T21:50:39.871Z,101280.91
2023-05-03T21:53:07.773Z,101279.09
2023-05-03T21:55:35.886Z,101283.75
2023-05-03T21:58:03.746Z,101276.16
2023-05-03T22:00:31.986Z,101289.59
2023-05-03T22:02:59.867Z,101288.75
2023-05-03T22:05:28.586Z,101291.25
2023-05-03T22:07:56.684Z,101292.00
2023-05-03T22:10:25.065Z,101288.94
2023-05-03T22:12:52.962Z,101303.53
2023-05-03T22:15:21.672Z,101289.84
2023-05-03T22:17:49.616Z,101293.28
2023-05-03T22:20:17.941Z,101294.78
2023-05-03T22:22:45.708Z,101292.88
2023-05-03T22:25:23.249Z,101289.03
2023-05-03T22:27:52.159Z,101288.38
2023-05-03T22:30:21.175Z,101290.75
2023-05-03T22:32:49.547Z,101289.31
2023-05-03T22:35:17.824Z,101290.22
2023-05-03T22:37:45.619Z,101292.78
2023-05-03T22:40:14.232Z,101293.16
2023-05-03T22:42:42.094Z,101308.22
2023-05-03T22:45:10.667Z,101304.06
2023-05-03T22:47:38.587Z,101303.06
2023-05-03T22:50:07.805Z,101310.00
2023-05-03T22:52:35.733Z,101307.00
2023-05-03T22:55:04.561Z,101304.22
2023-05-03T22:57:32.501Z,101295.38
2023-05-03T23:00:01.137Z,101297.88
2023-05-03T23:02:29.090Z,101298.22
2023-05-03T23:04:57.319Z,101301.59
2023-05-03T23:07:25.134Z,101305.06
2023-05-03T23:10:03.061Z,101303.22
2023-05-03T23:12:31.491Z,101307.59
2023-05-03T23:14:59.926Z,101309.44
2023-05-03T23:17:27.808Z,101301.53
2023-05-03T23:19:56.022Z,101300.94
2023-05-03T23:22:23.843Z,101305.41
2023-05-03T23:24:52.290Z,101312.28
2023-05-03T23:27:20.164Z,101306.38
2023-05-03T23:29:49.216Z,101313.41
2023-05-03T23:32:17.414Z,101307.22
2023-05-03T23:34:46.074Z,101307.91
2023-05-03T23:37:13.925Z,101310.94
2023-05-03T23:39:46.183Z,101300.84
2023-05-03T23:42:14.197Z,101308.28
2023-05-03T23:44:54.587Z,101304.03
2023-05-03T23:47:24.519Z,101307.06
2023-05-03T23:49:52.860Z,101299.28
2023-05-03T23:52:21.010Z,101293.38
2023-05-03T23:54:49.199Z,101292.47
2023-05-03T23:57:17.092Z,101293.31
2023-05-03T23:59:45.786Z,101293.72
